sensor_id;sensor_type;location;lat;lon;timestamp;P1;durP1;ratioP1;P2;durP2;ratioP2
34242;SDS011;20504;43.214;27.920;2023-06-22T00:04:15;32.00;;;24.38;;
34242;SDS011;20504;43.214;27.920;2023-06-22T00:06:41;44.30;;;24.00;;
34242;SDS011;20504;43.214;27.920;2023-06-22T00:09:06;34.73;;;24.87;;
34242;SDS011;20504;43.214;27.920;2023-06-22T00:11:32;31.60;;;21.73;;
34242;SDS011;20504;43.214;27.920;2023-06-22T00:13:58;39.22;;;23.23;;
34242;SDS011;20504;43.214;27.920;2023-06-22T00:16:24;31.23;;;23.23;;
34242;SDS011;20504;43.214;27.920;2023-06-22T00:18:50;31.77;;;22.80;;
34242;SDS011;20504;43.214;27.920;2023-06-22T00:21:15;36.87;;;22.97;;
34242;SDS011;20504;43.214;27.920;2023-06-22T00:23:41;36.00;;;23.53;;
34242;SDS011;20504;43.214;27.920;2023-06-22T00:26:06;37.10;;;23.80;;
34242;SDS011;20504;43.214;27.920;2023-06-22T00:28:32;41.57;;;23.00;;
34242;SDS011;20504;43.214;27.920;2023-06-22T00:30:59;34.67;;;24.90;;
34242;SDS011;20504;43.214;27.920;2023-06-22T00:33:25;37.13;;;23.75;;
34242;SDS011;20504;43.214;27.920;2023-06-22T00:35:51;40.00;;;23.73;;
34242;SDS011;20504;43.214;27.920;2023-06-22T00:38:18;35.47;;;22.92;;
34242;SDS011;20504;43.214;27.920;2023-06-22T00:40:44;38.77;;;24.60;;
34242;SDS011;20504;43.214;27.920;2023-06-22T00:43:09;33.07;;;23.00;;
34242;SDS011;20504;43.214;27.920;2023-06-22T00:45:35;37.77;;;23.13;;
34242;SDS011;20504;43.214;27.920;2023-06-22T00:48:01;35.77;;;23.83;;
34242;SDS011;20504;43.214;27.920;2023-06-22T00:53:43;33.58;;;23.80;;
34242;SDS011;20504;43.214;27.920;2023-06-22T00:56:08;39.55;;;24.80;;
34242;SDS011;20504;43.214;27.920;2023-06-22T00:58:37;33.65;;;23.05;;
34242;SDS011;20504;43.214;27.920;2023-06-22T01:01:06;36.42;;;22.85;;
34242;SDS011;20504;43.214;27.920;2023-06-22T01:03:32;35.20;;;23.57;;
34242;SDS011;20504;43.214;27.920;2023-06-22T01:06:07;35.97;;;24.17;;
34242;SDS011;20504;43.214;27.920;2023-06-22T01:08:57;31.60;;;22.02;;
34242;SDS011;20504;43.214;27.920;2023-06-22T01:11:36;33.53;;;22.65;;
34242;SDS011;20504;43.214;27.920;2023-06-22T01:16:44;37.60;;;24.20;;
34242;SDS011;20504;43.214;27.920;2023-06-22T01:22:01;38.72;;;25.20;;
34242;SDS011;20504;43.214;27.920;2023-06-22T01:24:51;38.58;;;24.13;;
34242;SDS011;20504;43.214;27.920;2023-06-22T01:30:11;32.60;;;23.25;;
34242;SDS011;20504;43.214;27.920;2023-06-22T01:32:38;38.30;;;22.95;;
34242;SDS011;20504;43.214;27.920;2023-06-22T01:38:01;30.58;;;22.67;;
34242;SDS011;20504;43.214;27.920;2023-06-22T01:40:26;25.70;;;21.47;;
34242;SDS011;20504;43.214;27.920;2023-06-22T01:42:53;33.20;;;21.98;;
34242;SDS011;20504;43.214;27.920;2023-06-22T01:45:19;31.33;;;21.27;;
34242;SDS011;20504;43.214;27.920;2023-06-22T01:47:44;29.23;;;20.40;;
34242;SDS011;20504;43.214;27.920;2023-06-22T01:50:10;32.30;;;21.20;;
34242;SDS011;20504;43.214;27.920;2023-06-22T01:52:36;28.70;;;20.27;;
34242;SDS011;20504;43.214;27.920;2023-06-22T01:55:02;37.83;;;22.10;;
34242;SDS011;20504;43.214;27.920;2023-06-22T01:57:29;30.75;;;21.42;;
34242;SDS011;20504;43.214;27.920;2023-06-22T02:00:09;29.53;;;19.40;;
34242;SDS011;20504;43.214;27.920;2023-06-22T02:02:46;28.25;;;20.38;;
34242;SDS011;20504;43.214;27.920;2023-06-22T02:05:24;26.27;;;18.85;;
34242;SDS011;20504;43.214;27.920;2023-06-22T02:08:02;29.70;;;19.27;;
34242;SDS011;20504;43.214;27.920;2023-06-22T02:10:32;29.23;;;18.58;;
34242;SDS011;20504;43.214;27.920;2023-06-22T02:13:01;27.77;;;18.85;;
34242;SDS011;20504;43.214;27.920;2023-06-22T02:15:29;32.75;;;20.50;;
34242;SDS011;20504;43.214;27.920;2023-06-22T02:17:56;29.10;;;21.75;;
34242;SDS011;20504;43.214;27.920;2023-06-22T02:20:21;34.80;;;26.00;;
34242;SDS011;20504;43.214;27.920;2023-06-22T02:22:49;36.85;;;24.48;;
34242;SDS011;20504;43.214;27.920;2023-06-22T02:25:17;38.17;;;25.65;;
34242;SDS011;20504;43.214;27.920;2023-06-22T02:27:49;37.85;;;26.15;;
34242;SDS011;20504;43.214;27.920;2023-06-22T02:30:15;32.78;;;23.80;;
34242;SDS011;20504;43.214;27.920;2023-06-22T02:32:41;38.13;;;24.10;;
34242;SDS011;20504;43.214;27.920;2023-06-22T02:35:07;37.28;;;24.60;;
34242;SDS011;20504;43.214;27.920;2023-06-22T02:37:37;34.65;;;24.75;;
34242;SDS011;20504;43.214;27.920;2023-06-22T02:40:07;30.52;;;21.92;;
34242;SDS011;20504;43.214;27.920;2023-06-22T02:42:36;37.67;;;22.40;;
34242;SDS011;20504;43.214;27.920;2023-06-22T02:47:28;31.85;;;21.75;;
34242;SDS011;20504;43.214;27.920;2023-06-22T02:53:25;35.97;;;20.35;;
34242;SDS011;20504;43.214;27.920;2023-06-22T02:55:50;38.55;;;21.00;;
34242;SDS011;20504;43.214;27.920;2023-06-22T02:58:16;26.60;;;18.73;;
34242;SDS011;20504;43.214;27.920;2023-06-22T03:00:41;28.47;;;20.20;;
34242;SDS011;20504;43.214;27.920;2023-06-22T03:03:07;28.93;;;19.10;;
34242;SDS011;20504;43.214;27.920;2023-06-22T03:05:32;23.40;;;18.47;;
34242;SDS011;20504;43.214;27.920;2023-06-22T03:08:00;26.08;;;17.75;;
34242;SDS011;20504;43.214;27.920;2023-06-22T03:10:25;25.33;;;17.87;;
34242;SDS011;20504;43.214;27.920;2023-06-22T03:12:51;31.50;;;18.90;;
34242;SDS011;20504;43.214;27.920;2023-06-22T03:15:16;25.33;;;18.13;;
34242;SDS011;20504;43.214;27.920;2023-06-22T03:17:42;25.13;;;17.97;;
34242;SDS011;20504;43.214;27.920;2023-06-22T03:20:08;25.83;;;17.13;;
34242;SDS011;20504;43.214;27.920;2023-06-22T03:22:38;26.17;;;17.63;;
34242;SDS011;20504;43.214;27.920;2023-06-22T03:25:05;23.00;;;17.80;;
34242;SDS011;20504;43.214;27.920;2023-06-22T03:27:38;28.45;;;17.15;;
34242;SDS011;20504;43.214;27.920;2023-06-22T03:30:06;29.75;;;16.85;;
34242;SDS011;20504;43.214;27.920;2023-06-22T03:32:33;21.73;;;16.48;;
34242;SDS011;20504;43.214;27.920;2023-06-22T03:35:02;27.07;;;16.07;;
34242;SDS011;20504;43.214;27.920;2023-06-22T03:37:30;19.30;;;15.45;;
34242;SDS011;20504;43.214;27.920;2023-06-22T03:39:55;26.20;;;16.93;;
34242;SDS011;20504;43.214;27.920;2023-06-22T03:42:21;23.27;;;14.57;;
34242;SDS011;20504;43.214;27.920;2023-06-22T03:44:46;19.80;;;14.93;;
34242;SDS011;20504;43.214;27.920;2023-06-22T03:47:12;23.13;;;14.10;;
34242;SDS011;20504;43.214;27.920;2023-06-22T03:49:38;19.40;;;14.40;;
34242;SDS011;20504;43.214;27.920;2023-06-22T03:52:04;20.53;;;12.53;;
34242;SDS011;20504;43.214;27.920;2023-06-22T03:54:30;23.73;;;13.77;;
34242;SDS011;20504;43.214;27.920;2023-06-22T03:56:59;20.00;;;12.70;;
34242;SDS011;20504;43.214;27.920;2023-06-22T03:59:24;22.75;;;14.52;;
34242;SDS011;20504;43.214;27.920;2023-06-22T04:01:50;17.97;;;14.03;;
34242;SDS011;20504;43.214;27.920;2023-06-22T04:04:16;28.37;;;15.00;;
34242;SDS011;20504;43.214;27.920;2023-06-22T04:06:43;22.88;;;14.55;;
34242;SDS011;20504;43.214;27.920;2023-06-22T04:11:36;19.50;;;13.85;;
34242;SDS011;20504;43.214;27.920;2023-06-22T04:16:27;17.15;;;12.52;;
34242;SDS011;20504;43.214;27.920;2023-06-22T04:18:52;20.77;;;12.93;;
34242;SDS011;20504;43.214;27.920;2023-06-22T04:21:24;22.92;;;13.95;;
34242;SDS011;20504;43.214;27.920;2023-06-22T04:23:50;18.88;;;13.25;;
34242;SDS011;20504;43.214;27.920;2023-06-22T04:26:15;14.97;;;12.57;;
34242;SDS011;20504;43.214;27.920;2023-06-22T04:28:46;15.90;;;12.73;;
34242;SDS011;20504;43.214;27.920;2023-06-22T04:31:22;26.73;;;12.75;;
34242;SDS011;20504;43.214;27.920;2023-06-22T04:33:52;16.70;;;12.38;;
34242;SDS011;20504;43.214;27.920;2023-06-22T04:36:18;28.65;;;14.85;;
34242;SDS011;20504;43.214;27.920;2023-06-22T04:38:44;19.88;;;13.45;;
34242;SDS011;20504;43.214;27.920;2023-06-22T04:41:09;27.60;;;13.40;;
34242;SDS011;20504;43.214;27.920;2023-06-22T04:43:40;20.65;;;11.88;;
34242;SDS011;20504;43.214;27.920;2023-06-22T04:46:05;15.68;;;11.77;;
34242;SDS011;20504;43.214;27.920;2023-06-22T04:48:34;23.47;;;12.63;;
34242;SDS011;20504;43.214;27.920;2023-06-22T04:51:01;19.05;;;12.38;;
34242;SDS011;20504;43.214;27.920;2023-06-22T04:53:30;19.35;;;11.82;;
34242;SDS011;20504;43.214;27.920;2023-06-22T04:55:56;17.98;;;11.93;;
34242;SDS011;20504;43.214;27.920;2023-06-22T04:58:21;23.53;;;12.80;;
34242;SDS011;20504;43.214;27.920;2023-06-22T05:00:47;22.77;;;12.47;;
34242;SDS011;20504;43.214;27.920;2023-06-22T05:03:12;23.67;;;12.00;;
34242;SDS011;20504;43.214;27.920;2023-06-22T05:05:43;21.15;;;12.27;;
34242;SDS011;20504;43.214;27.920;2023-06-22T05:08:10;26.17;;;12.23;;
34242;SDS011;20504;43.214;27.920;2023-06-22T05:10:52;25.30;;;12.82;;
34242;SDS011;20504;43.214;27.920;2023-06-22T05:13:24;20.40;;;11.40;;
34242;SDS011;20504;43.214;27.920;2023-06-22T05:15:54;19.55;;;11.13;;
34242;SDS011;20504;43.214;27.920;2023-06-22T05:18:31;18.00;;;11.00;;
34242;SDS011;20504;43.214;27.920;2023-06-22T05:21:06;18.50;;;10.77;;
34242;SDS011;20504;43.214;27.920;2023-06-22T05:23:41;15.70;;;10.93;;
34242;SDS011;20504;43.214;27.920;2023-06-22T05:26:07;19.67;;;11.60;;
34242;SDS011;20504;43.214;27.920;2023-06-22T05:28:34;23.70;;;10.90;;
34242;SDS011;20504;43.214;27.920;2023-06-22T05:31:00;18.95;;;11.75;;
34242;SDS011;20504;43.214;27.920;2023-06-22T05:33:26;17.63;;;11.13;;
34242;SDS011;20504;43.214;27.920;2023-06-22T05:35:57;21.25;;;11.07;;
34242;SDS011;20504;43.214;27.920;2023-06-22T05:38:22;24.15;;;12.32;;
34242;SDS011;20504;43.214;27.920;2023-06-22T05:41:00;17.65;;;11.30;;
34242;SDS011;20504;43.214;27.920;2023-06-22T05:43:26;27.25;;;11.50;;
34242;SDS011;20504;43.214;27.920;2023-06-22T05:46:04;15.57;;;10.85;;
34242;SDS011;20504;43.214;27.920;2023-06-22T05:48:30;17.63;;;10.38;;
34242;SDS011;20504;43.214;27.920;2023-06-22T05:50:56;16.92;;;10.30;;
34242;SDS011;20504;43.214;27.920;2023-06-22T05:53:24;15.13;;;8.40;;
34242;SDS011;20504;43.214;27.920;2023-06-22T05:56:24;16.00;;;8.50;;
34242;SDS011;20504;43.214;27.920;2023-06-22T05:58:50;13.30;;;9.10;;
34242;SDS011;20504;43.214;27.920;2023-06-22T06:01:16;12.65;;;9.20;;
34242;SDS011;20504;43.214;27.920;2023-06-22T06:03:42;26.50;;;16.57;;
34242;SDS011;20504;43.214;27.920;2023-06-22T06:06:14;23.67;;;10.27;;
34242;SDS011;20504;43.214;27.920;2023-06-22T06:08:41;13.98;;;9.15;;
34242;SDS011;20504;43.214;27.920;2023-06-22T06:13:35;21.33;;;10.07;;
34242;SDS011;20504;43.214;27.920;2023-06-22T06:16:00;15.05;;;9.65;;
34242;SDS011;20504;43.214;27.920;2023-06-22T06:18:28;20.58;;;9.80;;
34242;SDS011;20504;43.214;27.920;2023-06-22T06:21:02;19.90;;;9.27;;
34242;SDS011;20504;43.214;27.920;2023-06-22T06:23:28;15.70;;;9.27;;
34242;SDS011;20504;43.214;27.920;2023-06-22T06:25:57;15.95;;;9.07;;
34242;SDS011;20504;43.214;27.920;2023-06-22T06:28:24;9.93;;;8.37;;
34242;SDS011;20504;43.214;27.920;2023-06-22T06:30:51;13.27;;;9.48;;
34242;SDS011;20504;43.214;27.920;2023-06-22T06:33:18;15.45;;;9.85;;
34242;SDS011;20504;43.214;27.920;2023-06-22T06:35:46;16.85;;;10.13;;
34242;SDS011;20504;43.214;27.920;2023-06-22T06:38:13;14.80;;;10.38;;
34242;SDS011;20504;43.214;27.920;2023-06-22T06:40:39;11.97;;;8.77;;
34242;SDS011;20504;43.214;27.920;2023-06-22T06:43:05;20.33;;;9.27;;
34242;SDS011;20504;43.214;27.920;2023-06-22T06:45:30;15.10;;;9.60;;
34242;SDS011;20504;43.214;27.920;2023-06-22T06:48:03;20.75;;;10.68;;
34242;SDS011;20504;43.214;27.920;2023-06-22T06:50:28;17.05;;;9.55;;
34242;SDS011;20504;43.214;27.920;2023-06-22T06:53:07;13.77;;;8.53;;
34242;SDS011;20504;43.214;27.920;2023-06-22T06:55:41;14.52;;;9.27;;
34242;SDS011;20504;43.214;27.920;2023-06-22T06:58:11;12.73;;;8.43;;
34242;SDS011;20504;43.214;27.920;2023-06-22T07:00:38;13.88;;;9.45;;
34242;SDS011;20504;43.214;27.920;2023-06-22T07:03:04;18.58;;;10.00;;
34242;SDS011;20504;43.214;27.920;2023-06-22T07:05:32;18.55;;;10.23;;
34242;SDS011;20504;43.214;27.920;2023-06-22T07:07:58;12.37;;;9.73;;
34242;SDS011;20504;43.214;27.920;2023-06-22T07:10:25;18.35;;;9.93;;
34242;SDS011;20504;43.214;27.920;2023-06-22T07:12:51;16.10;;;9.55;;
34242;SDS011;20504;43.214;27.920;2023-06-22T07:15:19;12.93;;;9.10;;
34242;SDS011;20504;43.214;27.920;2023-06-22T07:17:47;10.98;;;8.27;;
34242;SDS011;20504;43.214;27.920;2023-06-22T07:20:12;10.23;;;8.10;;
34242;SDS011;20504;43.214;27.920;2023-06-22T07:22:39;11.15;;;7.50;;
34242;SDS011;20504;43.214;27.920;2023-06-22T07:25:13;13.48;;;8.10;;
34242;SDS011;20504;43.214;27.920;2023-06-22T07:27:46;12.25;;;8.00;;
34242;SDS011;20504;43.214;27.920;2023-06-22T07:30:33;9.52;;;7.10;;
34242;SDS011;20504;43.214;27.920;2023-06-22T07:33:02;15.65;;;8.10;;
34242;SDS011;20504;43.214;27.920;2023-06-22T07:35:33;11.63;;;6.85;;
34242;SDS011;20504;43.214;27.920;2023-06-22T07:38:07;11.73;;;7.50;;
34242;SDS011;20504;43.214;27.920;2023-06-22T07:40:34;10.68;;;7.25;;
34242;SDS011;20504;43.214;27.920;2023-06-22T07:43:00;10.77;;;7.68;;
34242;SDS011;20504;43.214;27.920;2023-06-22T07:45:28;9.48;;;7.43;;
34242;SDS011;20504;43.214;27.920;2023-06-22T07:47:54;12.73;;;8.20;;
34242;SDS011;20504;43.214;27.920;2023-06-22T07:50:20;10.57;;;7.70;;
34242;SDS011;20504;43.214;27.920;2023-06-22T07:52:46;11.35;;;7.65;;
34242;SDS011;20504;43.214;27.920;2023-06-22T07:55:14;11.73;;;8.02;;
34242;SDS011;20504;43.214;27.920;2023-06-22T07:57:42;14.32;;;8.65;;
34242;SDS011;20504;43.214;27.920;2023-06-22T08:00:08;11.20;;;7.97;;
34242;SDS011;20504;43.214;27.920;2023-06-22T08:02:40;11.80;;;8.60;;
34242;SDS011;20504;43.214;27.920;2023-06-22T08:05:10;13.23;;;8.75;;
34242;SDS011;20504;43.214;27.920;2023-06-22T08:07:39;14.05;;;8.65;;
34242;SDS011;20504;43.214;27.920;2023-06-22T08:10:10;13.43;;;9.90;;
34242;SDS011;20504;43.214;27.920;2023-06-22T08:12:38;11.00;;;8.65;;
34242;SDS011;20504;43.214;27.920;2023-06-22T08:15:06;15.57;;;8.50;;
34242;SDS011;20504;43.214;27.920;2023-06-22T08:17:34;10.05;;;8.40;;
34242;SDS011;20504;43.214;27.920;2023-06-22T08:20:04;9.32;;;8.43;;
34242;SDS011;20504;43.214;27.920;2023-06-22T08:22:38;13.13;;;9.25;;
34242;SDS011;20504;43.214;27.920;2023-06-22T08:25:05;15.68;;;9.68;;
34242;SDS011;20504;43.214;27.920;2023-06-22T08:29:57;11.32;;;8.10;;
34242;SDS011;20504;43.214;27.920;2023-06-22T08:32:25;12.70;;;7.55;;
34242;SDS011;20504;43.214;27.920;2023-06-22T08:34:55;9.55;;;8.23;;
34242;SDS011;20504;43.214;27.920;2023-06-22T08:37:21;11.43;;;8.75;;
34242;SDS011;20504;43.214;27.920;2023-06-22T08:39:50;9.90;;;8.55;;
34242;SDS011;20504;43.214;27.920;2023-06-22T08:42:17;12.07;;;8.48;;
34242;SDS011;20504;43.214;27.920;2023-06-22T08:44:45;11.40;;;8.48;;
34242;SDS011;20504;43.214;27.920;2023-06-22T08:47:11;11.93;;;8.07;;
34242;SDS011;20504;43.214;27.920;2023-06-22T08:49:39;8.73;;;7.82;;
34242;SDS011;20504;43.214;27.920;2023-06-22T08:52:05;14.45;;;8.65;;
34242;SDS011;20504;43.214;27.920;2023-06-22T08:54:32;8.73;;;7.63;;
34242;SDS011;20504;43.214;27.920;2023-06-22T08:57:08;12.52;;;8.90;;
34242;SDS011;20504;43.214;27.920;2023-06-22T08:59:38;10.55;;;8.98;;
34242;SDS011;20504;43.214;27.920;2023-06-22T09:02:03;14.90;;;8.27;;
34242;SDS011;20504;43.214;27.920;2023-06-22T09:04:33;14.95;;;8.65;;
34242;SDS011;20504;43.214;27.920;2023-06-22T09:07:01;10.93;;;8.40;;
34242;SDS011;20504;43.214;27.920;2023-06-22T09:09:29;10.52;;;8.55;;
34242;SDS011;20504;43.214;27.920;2023-06-22T09:11:59;16.95;;;8.07;;
34242;SDS011;20504;43.214;27.920;2023-06-22T09:14:33;11.45;;;8.40;;
34242;SDS011;20504;43.214;27.920;2023-06-22T09:16:59;13.43;;;8.57;;
34242;SDS011;20504;43.214;27.920;2023-06-22T09:19:30;14.65;;;8.45;;
34242;SDS011;20504;43.214;27.920;2023-06-22T09:21:58;13.88;;;8.38;;
34242;SDS011;20504;43.214;27.920;2023-06-22T09:24:23;15.20;;;9.60;;
34242;SDS011;20504;43.214;27.920;2023-06-22T09:26:50;14.00;;;10.55;;
34242;SDS011;20504;43.214;27.920;2023-06-22T09:29:18;14.98;;;10.57;;
34242;SDS011;20504;43.214;27.920;2023-06-22T09:31:44;14.67;;;11.53;;
34242;SDS011;20504;43.214;27.920;2023-06-22T09:34:10;15.30;;;10.98;;
34242;SDS011;20504;43.214;27.920;2023-06-22T09:36:36;14.13;;;10.80;;
34242;SDS011;20504;43.214;27.920;2023-06-22T09:39:11;13.13;;;10.93;;
34242;SDS011;20504;43.214;27.920;2023-06-22T09:41:40;13.10;;;11.00;;
34242;SDS011;20504;43.214;27.920;2023-06-22T09:44:18;13.75;;;10.98;;
34242;SDS011;20504;43.214;27.920;2023-06-22T09:46:46;16.73;;;11.05;;
34242;SDS011;20504;43.214;27.920;2023-06-22T09:49:11;15.10;;;10.87;;
34242;SDS011;20504;43.214;27.920;2023-06-22T09:51:37;14.30;;;11.73;;
34242;SDS011;20504;43.214;27.920;2023-06-22T09:54:02;20.63;;;12.30;;
34242;SDS011;20504;43.214;27.920;2023-06-22T09:56:28;16.87;;;12.53;;
34242;SDS011;20504;43.214;27.920;2023-06-22T09:58:55;17.55;;;13.02;;
34242;SDS011;20504;43.214;27.920;2023-06-22T10:01:20;15.77;;;12.30;;
34242;SDS011;20504;43.214;27.920;2023-06-22T10:03:46;18.25;;;11.23;;
34242;SDS011;20504;43.214;27.920;2023-06-22T10:06:13;11.95;;;10.32;;
34242;SDS011;20504;43.214;27.920;2023-06-22T10:08:38;13.00;;;10.47;;
34242;SDS011;20504;43.214;27.920;2023-06-22T10:11:05;12.77;;;10.73;;
34242;SDS011;20504;43.214;27.920;2023-06-22T10:13:31;13.38;;;10.35;;
34242;SDS011;20504;43.214;27.920;2023-06-22T10:15:56;15.83;;;10.47;;
34242;SDS011;20504;43.214;27.920;2023-06-22T10:18:22;16.30;;;10.30;;
34242;SDS011;20504;43.214;27.920;2023-06-22T10:20:48;10.77;;;9.77;;
34242;SDS011;20504;43.214;27.920;2023-06-22T10:23:16;12.32;;;10.32;;
34242;SDS011;20504;43.214;27.920;2023-06-22T10:25:43;11.18;;;9.98;;
34242;SDS011;20504;43.214;27.920;2023-06-22T10:28:09;11.23;;;9.95;;
34242;SDS011;20504;43.214;27.920;2023-06-22T10:30:35;13.27;;;9.73;;
34242;SDS011;20504;43.214;27.920;2023-06-22T10:33:01;12.35;;;10.18;;
34242;SDS011;20504;43.214;27.920;2023-06-22T10:35:27;12.53;;;10.33;;
34242;SDS011;20504;43.214;27.920;2023-06-22T10:37:52;14.83;;;10.60;;
34242;SDS011;20504;43.214;27.920;2023-06-22T10:40:19;11.57;;;10.48;;
34242;SDS011;20504;43.214;27.920;2023-06-22T10:42:46;10.90;;;9.68;;
34242;SDS011;20504;43.214;27.920;2023-06-22T10:45:12;13.57;;;10.73;;
34242;SDS011;20504;43.214;27.920;2023-06-22T10:47:37;14.23;;;10.25;;
34242;SDS011;20504;43.214;27.920;2023-06-22T10:50:03;16.60;;;13.52;;
34242;SDS011;20504;43.214;27.920;2023-06-22T10:52:31;16.20;;;10.40;;
34242;SDS011;20504;43.214;27.920;2023-06-22T10:54:56;11.90;;;10.68;;
34242;SDS011;20504;43.214;27.920;2023-06-22T10:57:22;13.95;;;11.40;;
34242;SDS011;20504;43.214;27.920;2023-06-22T10:59:48;16.10;;;11.17;;
34242;SDS011;20504;43.214;27.920;2023-06-22T11:02:13;14.10;;;11.40;;
34242;SDS011;20504;43.214;27.920;2023-06-22T11:04:39;14.90;;;11.60;;
34242;SDS011;20504;43.214;27.920;2023-06-22T11:07:10;12.77;;;11.47;;
34242;SDS011;20504;43.214;27.920;2023-06-22T11:09:35;13.55;;;10.85;;
34242;SDS011;20504;43.214;27.920;2023-06-22T11:12:01;16.73;;;10.83;;
34242;SDS011;20504;43.214;27.920;2023-06-22T11:14:26;12.37;;;10.60;;
34242;SDS011;20504;43.214;27.920;2023-06-22T11:16:52;16.63;;;12.70;;
34242;SDS011;20504;43.214;27.920;2023-06-22T11:19:17;13.03;;;10.63;;
34242;SDS011;20504;43.214;27.920;2023-06-22T11:21:43;13.40;;;11.40;;
34242;SDS011;20504;43.214;27.920;2023-06-22T11:24:16;13.07;;;11.30;;
34242;SDS011;20504;43.214;27.920;2023-06-22T11:26:43;12.85;;;11.45;;
34242;SDS011;20504;43.214;27.920;2023-06-22T11:29:14;13.98;;;11.68;;
34242;SDS011;20504;43.214;27.920;2023-06-22T11:32:02;12.70;;;11.40;;
34242;SDS011;20504;43.214;27.920;2023-06-22T11:34:32;13.13;;;10.82;;
34242;SDS011;20504;43.214;27.920;2023-06-22T11:36:57;15.45;;;10.98;;
34242;SDS011;20504;43.214;27.920;2023-06-22T11:39:35;11.15;;;10.00;;
34242;SDS011;20504;43.214;27.920;2023-06-22T11:42:02;12.07;;;10.10;;
34242;SDS011;20504;43.214;27.920;2023-06-22T11:44:28;11.25;;;8.93;;
34242;SDS011;20504;43.214;27.920;2023-06-22T11:46:55;11.73;;;10.63;;
34242;SDS011;20504;43.214;27.920;2023-06-22T11:49:26;13.38;;;10.68;;
34242;SDS011;20504;43.214;27.920;2023-06-22T11:51:52;12.02;;;10.27;;
34242;SDS011;20504;43.214;27.920;2023-06-22T11:54:23;16.92;;;10.80;;
34242;SDS011;20504;43.214;27.920;2023-06-22T11:56:49;12.60;;;9.98;;
34242;SDS011;20504;43.214;27.920;2023-06-22T11:59:16;12.05;;;10.40;;
34242;SDS011;20504;43.214;27.920;2023-06-22T12:01:45;11.20;;;10.07;;
34242;SDS011;20504;43.214;27.920;2023-06-22T12:04:11;13.40;;;9.93;;
34242;SDS011;20504;43.214;27.920;2023-06-22T12:06:37;12.02;;;10.65;;
34242;SDS011;20504;43.214;27.920;2023-06-22T12:09:06;12.25;;;9.50;;
34242;SDS011;20504;43.214;27.920;2023-06-22T12:11:39;11.80;;;9.60;;
34242;SDS011;20504;43.214;27.920;2023-06-22T12:14:15;11.35;;;10.15;;
34242;SDS011;20504;43.214;27.920;2023-06-22T12:19:24;13.88;;;10.68;;
34242;SDS011;20504;43.214;27.920;2023-06-22T12:21:52;12.73;;;8.95;;
34242;SDS011;20504;43.214;27.920;2023-06-22T12:24:19;10.25;;;9.10;;
34242;SDS011;20504;43.214;27.920;2023-06-22T12:29:10;12.18;;;9.48;;
34242;SDS011;20504;43.214;27.920;2023-06-22T12:31:37;12.02;;;8.63;;
34242;SDS011;20504;43.214;27.920;2023-06-22T12:34:06;9.82;;;8.98;;
34242;SDS011;20504;43.214;27.920;2023-06-22T12:36:33;12.77;;;9.05;;
34242;SDS011;20504;43.214;27.920;2023-06-22T12:39:07;11.23;;;8.45;;
34242;SDS011;20504;43.214;27.920;2023-06-22T12:41:32;11.30;;;9.00;;
34242;SDS011;20504;43.214;27.920;2023-06-22T12:43:58;9.85;;;8.85;;
34242;SDS011;20504;43.214;27.920;2023-06-22T12:46:24;9.30;;;8.40;;
34242;SDS011;20504;43.214;27.920;2023-06-22T12:48:50;11.13;;;8.55;;
34242;SDS011;20504;43.214;27.920;2023-06-22T12:51:21;11.00;;;7.95;;
34242;SDS011;20504;43.214;27.920;2023-06-22T12:56:37;11.25;;;7.63;;
34242;SDS011;20504;43.214;27.920;2023-06-22T12:59:06;10.30;;;8.30;;
34242;SDS011;20504;43.214;27.920;2023-06-22T13:01:33;8.27;;;7.47;;
34242;SDS011;20504;43.214;27.920;2023-06-22T13:06:24;8.48;;;7.55;;
34242;SDS011;20504;43.214;27.920;2023-06-22T13:08:51;10.15;;;7.72;;
34242;SDS011;20504;43.214;27.920;2023-06-22T13:11:18;10.35;;;6.85;;
34242;SDS011;20504;43.214;27.920;2023-06-22T13:13:44;10.43;;;7.45;;
34242;SDS011;20504;43.214;27.920;2023-06-22T13:16:10;8.10;;;7.13;;
34242;SDS011;20504;43.214;27.920;2023-06-22T13:18:37;8.05;;;7.28;;
34242;SDS011;20504;43.214;27.920;2023-06-22T13:21:03;8.05;;;7.30;;
34242;SDS011;20504;43.214;27.920;2023-06-22T13:23:29;13.05;;;7.22;;
34242;SDS011;20504;43.214;27.920;2023-06-22T13:25:56;8.43;;;7.13;;
34242;SDS011;20504;43.214;27.920;2023-06-22T13:28:27;7.75;;;7.03;;
34242;SDS011;20504;43.214;27.920;2023-06-22T13:30:58;8.23;;;7.43;;
34242;SDS011;20504;43.214;27.920;2023-06-22T13:33:32;7.68;;;6.97;;
34242;SDS011;20504;43.214;27.920;2023-06-22T13:36:18;8.07;;;7.22;;
34242;SDS011;20504;43.214;27.920;2023-06-22T13:38:44;14.88;;;9.55;;
34242;SDS011;20504;43.214;27.920;2023-06-22T13:41:10;7.95;;;6.75;;
34242;SDS011;20504;43.214;27.920;2023-06-22T13:43:35;8.35;;;6.78;;
34242;SDS011;20504;43.214;27.920;2023-06-22T13:46:01;7.80;;;6.80;;
34242;SDS011;20504;43.214;27.920;2023-06-22T13:48:26;9.77;;;7.00;;
34242;SDS011;20504;43.214;27.920;2023-06-22T13:50:53;10.27;;;6.82;;
34242;SDS011;20504;43.214;27.920;2023-06-22T13:53:19;8.98;;;7.25;;
34242;SDS011;20504;43.214;27.920;2023-06-22T13:55:44;8.05;;;6.55;;
34242;SDS011;20504;43.214;27.920;2023-06-22T13:58:10;7.80;;;7.05;;
34242;SDS011;20504;43.214;27.920;2023-06-22T14:00:35;9.75;;;7.35;;
34242;SDS011;20504;43.214;27.920;2023-06-22T14:03:01;7.55;;;6.72;;
34242;SDS011;20504;43.214;27.920;2023-06-22T14:05:26;7.43;;;6.50;;
34242;SDS011;20504;43.214;27.920;2023-06-22T14:08:01;8.55;;;7.00;;
34242;SDS011;20504;43.214;27.920;2023-06-22T14:10:26;9.20;;;6.72;;
34242;SDS011;20504;43.214;27.920;2023-06-22T14:12:52;8.00;;;6.65;;
34242;SDS011;20504;43.214;27.920;2023-06-22T14:15:25;8.38;;;6.72;;
34242;SDS011;20504;43.214;27.920;2023-06-22T14:17:52;8.50;;;7.60;;
34242;SDS011;20504;43.214;27.920;2023-06-22T14:20:24;11.00;;;7.15;;
34242;SDS011;20504;43.214;27.920;2023-06-22T14:23:06;8.20;;;7.32;;
34242;SDS011;20504;43.214;27.920;2023-06-22T14:25:39;11.02;;;8.07;;
34242;SDS011;20504;43.214;27.920;2023-06-22T14:28:05;10.95;;;7.13;;
34242;SDS011;20504;43.214;27.920;2023-06-22T14:32:56;8.57;;;7.65;;
34242;SDS011;20504;43.214;27.920;2023-06-22T14:35:22;10.18;;;8.85;;
34242;SDS011;20504;43.214;27.920;2023-06-22T14:38:05;11.02;;;8.18;;
34242;SDS011;20504;43.214;27.920;2023-06-22T14:42:55;10.70;;;8.15;;
34242;SDS011;20504;43.214;27.920;2023-06-22T14:47:47;11.05;;;8.13;;
34242;SDS011;20504;43.214;27.920;2023-06-22T14:52:38;8.50;;;7.53;;
34242;SDS011;20504;43.214;27.920;2023-06-22T14:57:29;10.40;;;7.57;;
34242;SDS011;20504;43.214;27.920;2023-06-22T15:02:45;8.57;;;7.30;;
34242;SDS011;20504;43.214;27.920;2023-06-22T15:05:19;9.65;;;7.18;;
34242;SDS011;20504;43.214;27.920;2023-06-22T15:10:25;11.65;;;7.65;;
34242;SDS011;20504;43.214;27.920;2023-06-22T15:12:51;8.80;;;7.10;;
34242;SDS011;20504;43.214;27.920;2023-06-22T15:17:41;9.27;;;8.15;;
34242;SDS011;20504;43.214;27.920;2023-06-22T15:22:34;9.53;;;7.37;;
34242;SDS011;20504;43.214;27.920;2023-06-22T15:27:26;7.88;;;6.80;;
34242;SDS011;20504;43.214;27.920;2023-06-22T15:29:52;9.32;;;7.53;;